sensor_id;sensor_type;location;lat;lon;timestamp;P1;durP1;ratioP1;P2;durP2;ratioP2
32894;SDS011;19251;49.484;8.260;2022-09-09T00:08:58;3.40;;;0.68;;
32894;SDS011;19251;49.484;8.260;2022-09-09T00:14:26;1.65;;;0.75;;
32894;SDS011;19251;49.484;8.260;2022-09-09T00:19:49;3.58;;;0.80;;
32894;SDS011;19251;49.484;8.260;2022-09-09T00:25:08;4.62;;;0.80;;
32894;SDS011;19251;49.484;8.260;2022-09-09T00:30:25;2.00;;;0.80;;
32894;SDS011;19251;49.484;8.260;2022-09-09T00:35:36;2.03;;;0.73;;
32894;SDS011;19251;49.484;8.260;2022-09-09T00:51:35;2.35;;;0.80;;
32894;SDS011;19251;49.484;8.260;2022-09-09T00:57:35;1.33;;;0.50;;
32894;SDS011;19251;49.484;8.260;2022-09-09T01:07:47;2.35;;;0.95;;
32894;SDS011;19251;49.484;8.260;2022-09-09T01:12:57;3.30;;;0.88;;
32894;SDS011;19251;49.484;8.260;2022-09-09T01:18:04;3.12;;;0.90;;
32894;SDS011;19251;49.484;8.260;2022-09-09T01:28:38;3.92;;;1.35;;
32894;SDS011;19251;49.484;8.260;2022-09-09T01:33:41;2.15;;;0.70;;
32894;SDS011;19251;49.484;8.260;2022-09-09T01:43:46;0.70;;;0.47;;
32894;SDS011;19251;49.484;8.260;2022-09-09T01:48:50;4.85;;;1.35;;
32894;SDS011;19251;49.484;8.260;2022-09-09T01:53:54;0.35;;;0.32;;
32894;SDS011;19251;49.484;8.260;2022-09-09T02:04:12;6.72;;;1.08;;
32894;SDS011;19251;49.484;8.260;2022-09-09T02:09:38;4.40;;;1.10;;
32894;SDS011;19251;49.484;8.260;2022-09-09T02:14:47;1.90;;;1.05;;
32894;SDS011;19251;49.484;8.260;2022-09-09T02:19:57;2.45;;;0.88;;
32894;SDS011;19251;49.484;8.260;2022-09-09T02:25:22;1.90;;;0.57;;
32894;SDS011;19251;49.484;8.260;2022-09-09T02:30:29;4.47;;;0.85;;
32894;SDS011;19251;49.484;8.260;2022-09-09T02:35:35;1.98;;;0.60;;
32894;SDS011;19251;49.484;8.260;2022-09-09T02:40:40;5.95;;;0.77;;
32894;SDS011;19251;49.484;8.260;2022-09-09T02:46:03;3.05;;;0.55;;
32894;SDS011;19251;49.484;8.260;2022-09-09T02:51:15;5.15;;;0.95;;
32894;SDS011;19251;49.484;8.260;2022-09-09T02:56:19;3.03;;;0.82;;
32894;SDS011;19251;49.484;8.260;2022-09-09T03:01:25;2.80;;;0.73;;
32894;SDS011;19251;49.484;8.260;2022-09-09T03:06:27;8.55;;;0.98;;
32894;SDS011;19251;49.484;8.260;2022-09-09T03:11:31;5.75;;;0.90;;
32894;SDS011;19251;49.484;8.260;2022-09-09T03:16:33;1.67;;;0.77;;
32894;SDS011;19251;49.484;8.260;2022-09-09T03:21:36;6.85;;;1.33;;
32894;SDS011;19251;49.484;8.260;2022-09-09T03:26:40;5.85;;;1.40;;
32894;SDS011;19251;49.484;8.260;2022-09-09T03:31:47;4.47;;;1.15;;
32894;SDS011;19251;49.484;8.260;2022-09-09T03:36:50;3.40;;;1.20;;
32894;SDS011;19251;49.484;8.260;2022-09-09T03:46:55;7.85;;;1.25;;
32894;SDS011;19251;49.484;8.260;2022-09-09T03:51:58;4.62;;;1.65;;
32894;SDS011;19251;49.484;8.260;2022-09-09T03:57:01;4.07;;;1.35;;
32894;SDS011;19251;49.484;8.260;2022-09-09T04:02:04;3.55;;;1.20;;
32894;SDS011;19251;49.484;8.260;2022-09-09T04:07:06;3.33;;;1.08;;
32894;SDS011;19251;49.484;8.260;2022-09-09T04:12:08;1.80;;;0.80;;
32894;SDS011;19251;49.484;8.260;2022-09-09T04:17:12;3.72;;;1.10;;
32894;SDS011;19251;49.484;8.260;2022-09-09T04:27:18;4.47;;;0.70;;
32894;SDS011;19251;49.484;8.260;2022-09-09T04:32:20;4.22;;;0.93;;
32894;SDS011;19251;49.484;8.260;2022-09-09T04:37:22;2.65;;;0.62;;
32894;SDS011;19251;49.484;8.260;2022-09-09T04:42:26;7.32;;;1.10;;
32894;SDS011;19251;49.484;8.260;2022-09-09T04:52:33;2.47;;;0.80;;
32894;SDS011;19251;49.484;8.260;2022-09-09T04:57:37;4.90;;;1.00;;
32894;SDS011;19251;49.484;8.260;2022-09-09T05:02:39;12.00;;;1.13;;
32894;SDS011;19251;49.484;8.260;2022-09-09T05:07:43;4.90;;;0.80;;
32894;SDS011;19251;49.484;8.260;2022-09-09T05:12:51;5.37;;;1.02;;
32894;SDS011;19251;49.484;8.260;2022-09-09T05:17:58;3.60;;;0.52;;
32894;SDS011;19251;49.484;8.260;2022-09-09T05:23:02;3.60;;;0.85;;
32894;SDS011;19251;49.484;8.260;2022-09-09T05:28:05;0.98;;;0.52;;
32894;SDS011;19251;49.484;8.260;2022-09-09T05:33:08;1.23;;;0.68;;
32894;SDS011;19251;49.484;8.260;2022-09-09T05:38:11;1.20;;;0.65;;
32894;SDS011;19251;49.484;8.260;2022-09-09T05:43:13;7.73;;;0.60;;
32894;SDS011;19251;49.484;8.260;2022-09-09T05:53:19;4.30;;;1.40;;
32894;SDS011;19251;49.484;8.260;2022-09-09T05:58:22;5.85;;;0.93;;
32894;SDS011;19251;49.484;8.260;2022-09-09T06:03:26;2.55;;;0.85;;
32894;SDS011;19251;49.484;8.260;2022-09-09T06:08:28;4.72;;;0.95;;
32894;SDS011;19251;49.484;8.260;2022-09-09T06:13:30;3.03;;;1.10;;
32894;SDS011;19251;49.484;8.260;2022-09-09T06:23:35;3.58;;;1.33;;
32894;SDS011;19251;49.484;8.260;2022-09-09T06:28:38;4.75;;;0.90;;
32894;SDS011;19251;49.484;8.260;2022-09-09T06:33:41;2.83;;;1.12;;
32894;SDS011;19251;49.484;8.260;2022-09-09T06:38:44;3.87;;;1.00;;
32894;SDS011;19251;49.484;8.260;2022-09-09T06:43:47;6.82;;;1.23;;
32894;SDS011;19251;49.484;8.260;2022-09-09T06:48:50;3.25;;;0.75;;
32894;SDS011;19251;49.484;8.260;2022-09-09T06:53:55;4.70;;;0.95;;
32894;SDS011;19251;49.484;8.260;2022-09-09T06:59:00;1.70;;;0.70;;
32894;SDS011;19251;49.484;8.260;2022-09-09T07:04:05;2.72;;;0.77;;
32894;SDS011;19251;49.484;8.260;2022-09-09T07:09:11;3.08;;;0.77;;
32894;SDS011;19251;49.484;8.260;2022-09-09T07:14:16;3.15;;;0.93;;
32894;SDS011;19251;49.484;8.260;2022-09-09T07:19:19;2.95;;;1.20;;
32894;SDS011;19251;49.484;8.260;2022-09-09T07:24:21;8.23;;;1.58;;
32894;SDS011;19251;49.484;8.260;2022-09-09T07:29:25;7.50;;;1.05;;
32894;SDS011;19251;49.484;8.260;2022-09-09T07:34:27;4.12;;;1.10;;
32894;SDS011;19251;49.484;8.260;2022-09-09T07:39:30;6.35;;;1.17;;
32894;SDS011;19251;49.484;8.260;2022-09-09T07:44:32;5.75;;;1.58;;
32894;SDS011;19251;49.484;8.260;2022-09-09T07:49:37;6.00;;;1.33;;
32894;SDS011;19251;49.484;8.260;2022-09-09T07:54:40;3.53;;;0.82;;
32894;SDS011;19251;49.484;8.260;2022-09-09T07:59:43;3.97;;;1.08;;
32894;SDS011;19251;49.484;8.260;2022-09-09T08:04:47;2.67;;;0.93;;
32894;SDS011;19251;49.484;8.260;2022-09-09T08:09:49;3.15;;;0.70;;
32894;SDS011;19251;49.484;8.260;2022-09-09T08:14:52;5.28;;;1.48;;
32894;SDS011;19251;49.484;8.260;2022-09-09T08:19:57;3.33;;;1.10;;
32894;SDS011;19251;49.484;8.260;2022-09-09T08:25:02;3.47;;;0.88;;
32894;SDS011;19251;49.484;8.260;2022-09-09T08:30:09;7.05;;;1.40;;
32894;SDS011;19251;49.484;8.260;2022-09-09T08:35:14;4.53;;;1.20;;
32894;SDS011;19251;49.484;8.260;2022-09-09T08:40:21;4.47;;;1.55;;
32894;SDS011;19251;49.484;8.260;2022-09-09T08:45:31;4.62;;;1.37;;
32894;SDS011;19251;49.484;8.260;2022-09-09T08:50:39;8.85;;;1.75;;
32894;SDS011;19251;49.484;8.260;2022-09-09T08:55:52;3.40;;;0.95;;
32894;SDS011;19251;49.484;8.260;2022-09-09T09:06:28;6.70;;;1.27;;
32894;SDS011;19251;49.484;8.260;2022-09-09T09:11:45;5.87;;;1.73;;
32894;SDS011;19251;49.484;8.260;2022-09-09T09:16:56;9.27;;;1.70;;
32894;SDS011;19251;49.484;8.260;2022-09-09T09:22:21;7.70;;;1.75;;
32894;SDS011;19251;49.484;8.260;2022-09-09T09:27:32;7.40;;;1.30;;
32894;SDS011;19251;49.484;8.260;2022-09-09T09:32:44;7.45;;;1.12;;
32894;SDS011;19251;49.484;8.260;2022-09-09T09:37:54;6.32;;;1.73;;
32894;SDS011;19251;49.484;8.260;2022-09-09T09:48:26;4.55;;;1.12;;
32894;SDS011;19251;49.484;8.260;2022-09-09T09:53:30;4.82;;;1.62;;
32894;SDS011;19251;49.484;8.260;2022-09-09T10:03:52;4.85;;;1.75;;
32894;SDS011;19251;49.484;8.260;2022-09-09T10:09:22;6.95;;;1.92;;
32894;SDS011;19251;49.484;8.260;2022-09-09T10:19:47;5.68;;;1.40;;
32894;SDS011;19251;49.484;8.260;2022-09-09T10:25:23;5.93;;;1.58;;
32894;SDS011;19251;49.484;8.260;2022-09-09T10:30:56;5.25;;;1.52;;
32894;SDS011;19251;49.484;8.260;2022-09-09T10:36:20;5.85;;;1.77;;
32894;SDS011;19251;49.484;8.260;2022-09-09T10:57:59;6.45;;;1.55;;
32894;SDS011;19251;49.484;8.260;2022-09-09T11:03:04;4.15;;;1.20;;
32894;SDS011;19251;49.484;8.260;2022-09-09T11:08:18;5.32;;;1.60;;
32894;SDS011;19251;49.484;8.260;2022-09-09T11:13:35;3.83;;;0.90;;
32894;SDS011;19251;49.484;8.260;2022-09-09T11:18:46;7.28;;;1.45;;
32894;SDS011;19251;49.484;8.260;2022-09-09T11:24:09;4.68;;;1.27;;
32894;SDS011;19251;49.484;8.260;2022-09-09T11:29:25;3.47;;;1.37;;
32894;SDS011;19251;49.484;8.260;2022-09-09T11:40:26;7.95;;;1.83;;
32894;SDS011;19251;49.484;8.260;2022-09-09T11:45:29;4.70;;;1.33;;
32894;SDS011;19251;49.484;8.260;2022-09-09T11:50:33;7.65;;;1.48;;
32894;SDS011;19251;49.484;8.260;2022-09-09T11:55:39;7.28;;;1.77;;
32894;SDS011;19251;49.484;8.260;2022-09-09T12:00:42;9.02;;;1.90;;
32894;SDS011;19251;49.484;8.260;2022-09-09T12:05:46;6.43;;;1.30;;
32894;SDS011;19251;49.484;8.260;2022-09-09T12:10:56;6.82;;;1.60;;
32894;SDS011;19251;49.484;8.260;2022-09-09T12:16:01;5.87;;;0.55;;
32894;SDS011;19251;49.484;8.260;2022-09-09T12:21:17;3.95;;;0.75;;
32894;SDS011;19251;49.484;8.260;2022-09-09T12:32:22;5.82;;;0.93;;
32894;SDS011;19251;49.484;8.260;2022-09-09T12:42:42;2.42;;;0.50;;
32894;SDS011;19251;49.484;8.260;2022-09-09T12:47:46;3.72;;;1.00;;
32894;SDS011;19251;49.484;8.260;2022-09-09T12:52:53;3.17;;;1.10;;
32894;SDS011;19251;49.484;8.260;2022-09-09T12:57:58;2.55;;;1.00;;
32894;SDS011;19251;49.484;8.260;2022-09-09T13:03:16;3.62;;;0.90;;
32894;SDS011;19251;49.484;8.260;2022-09-09T13:08:20;1.83;;;0.73;;
32894;SDS011;19251;49.484;8.260;2022-09-09T13:13:26;3.12;;;0.65;;
32894;SDS011;19251;49.484;8.260;2022-09-09T13:18:32;1.83;;;0.50;;
32894;SDS011;19251;49.484;8.260;2022-09-09T13:23:37;2.28;;;0.70;;
32894;SDS011;19251;49.484;8.260;2022-09-09T13:28:39;1.62;;;0.50;;
32894;SDS011;19251;49.484;8.260;2022-09-09T13:33:42;3.83;;;0.80;;
32894;SDS011;19251;49.484;8.260;2022-09-09T13:38:56;3.67;;;1.17;;
32894;SDS011;19251;49.484;8.260;2022-09-09T13:44:01;3.37;;;0.80;;
32894;SDS011;19251;49.484;8.260;2022-09-09T13:54:13;3.53;;;0.75;;
32894;SDS011;19251;49.484;8.260;2022-09-09T13:59:17;2.25;;;0.75;;
32894;SDS011;19251;49.484;8.260;2022-09-09T14:04:38;1.77;;;0.50;;
32894;SDS011;19251;49.484;8.260;2022-09-09T14:09:42;2.90;;;0.50;;
32894;SDS011;19251;49.484;8.260;2022-09-09T14:14:45;3.45;;;0.70;;
32894;SDS011;19251;49.484;8.260;2022-09-09T14:19:47;4.12;;;1.12;;
32894;SDS011;19251;49.484;8.260;2022-09-09T14:24:49;4.10;;;0.70;;
32894;SDS011;19251;49.484;8.260;2022-09-09T14:29:52;2.25;;;0.62;;
32894;SDS011;19251;49.484;8.260;2022-09-09T14:34:55;3.30;;;0.93;;
32894;SDS011;19251;49.484;8.260;2022-09-09T14:39:57;7.15;;;1.10;;
32894;SDS011;19251;49.484;8.260;2022-09-09T14:45:00;1.83;;;0.80;;
32894;SDS011;19251;49.484;8.260;2022-09-09T14:50:02;4.25;;;1.58;;
32894;SDS011;19251;49.484;8.260;2022-09-09T14:55:06;4.43;;;1.20;;
32894;SDS011;19251;49.484;8.260;2022-09-09T15:00:09;2.70;;;0.50;;
32894;SDS011;19251;49.484;8.260;2022-09-09T15:05:13;1.42;;;0.50;;
32894;SDS011;19251;49.484;8.260;2022-09-09T15:10:16;4.43;;;0.60;;
32894;SDS011;19251;49.484;8.260;2022-09-09T15:20:20;1.42;;;0.50;;
32894;SDS011;19251;49.484;8.260;2022-09-09T15:25:23;2.17;;;0.90;;
32894;SDS011;19251;49.484;8.260;2022-09-09T15:30:25;1.12;;;0.80;;
32894;SDS011;19251;49.484;8.260;2022-09-09T15:35:29;3.05;;;0.60;;
32894;SDS011;19251;49.484;8.260;2022-09-09T15:40:31;1.42;;;0.37;;
32894;SDS011;19251;49.484;8.260;2022-09-09T15:45:36;1.12;;;0.32;;
32894;SDS011;19251;49.484;8.260;2022-09-09T15:50:39;1.52;;;0.45;;
32894;SDS011;19251;49.484;8.260;2022-09-09T15:55:41;1.70;;;0.40;;
32894;SDS011;19251;49.484;8.260;2022-09-09T16:00:44;2.50;;;0.62;;
32894;SDS011;19251;49.484;8.260;2022-09-09T16:05:50;1.60;;;0.65;;
32894;SDS011;19251;49.484;8.260;2022-09-09T16:10:53;4.00;;;0.70;;
32894;SDS011;19251;49.484;8.260;2022-09-09T16:15:55;11.63;;;1.08;;
32894;SDS011;19251;49.484;8.260;2022-09-09T16:20:57;6.37;;;1.73;;
32894;SDS011;19251;49.484;8.260;2022-09-09T16:25:59;0.90;;;0.62;;
32894;SDS011;19251;49.484;8.260;2022-09-09T16:31:17;1.30;;;0.40;;
32894;SDS011;19251;49.484;8.260;2022-09-09T16:36:26;4.07;;;0.40;;
32894;SDS011;19251;49.484;8.260;2022-09-09T16:41:31;1.87;;;0.70;;
32894;SDS011;19251;49.484;8.260;2022-09-09T16:46:35;2.45;;;0.57;;
32894;SDS011;19251;49.484;8.260;2022-09-09T16:51:44;2.55;;;0.68;;
32894;SDS011;19251;49.484;8.260;2022-09-09T16:56:48;1.85;;;0.50;;
32894;SDS011;19251;49.484;8.260;2022-09-09T17:01:51;0.60;;;0.30;;
32894;SDS011;19251;49.484;8.260;2022-09-09T17:06:54;1.40;;;0.57;;
32894;SDS011;19251;49.484;8.260;2022-09-09T17:11:57;1.25;;;0.50;;
32894;SDS011;19251;49.484;8.260;2022-09-09T17:17:00;4.28;;;0.85;;
32894;SDS011;19251;49.484;8.260;2022-09-09T17:22:22;1.67;;;0.60;;
32894;SDS011;19251;49.484;8.260;2022-09-09T17:27:24;2.70;;;0.82;;
32894;SDS011;19251;49.484;8.260;2022-09-09T17:37:30;0.97;;;0.57;;
32894;SDS011;19251;49.484;8.260;2022-09-09T17:42:32;4.30;;;0.85;;
32894;SDS011;19251;49.484;8.260;2022-09-09T17:47:35;1.45;;;0.20;;
32894;SDS011;19251;49.484;8.260;2022-09-09T17:52:38;3.17;;;0.35;;
32894;SDS011;19251;49.484;8.260;2022-09-09T18:03:07;4.87;;;0.62;;
32894;SDS011;19251;49.484;8.260;2022-09-09T18:08:10;4.32;;;0.93;;
32894;SDS011;19251;49.484;8.260;2022-09-09T18:13:12;3.17;;;0.85;;
32894;SDS011;19251;49.484;8.260;2022-09-09T18:18:15;4.50;;;0.47;;
32894;SDS011;19251;49.484;8.260;2022-09-09T18:23:17;3.30;;;0.60;;
32894;SDS011;19251;49.484;8.260;2022-09-09T18:28:19;1.17;;;0.73;;
32894;SDS011;19251;49.484;8.260;2022-09-09T18:33:25;1.55;;;0.47;;
32894;SDS011;19251;49.484;8.260;2022-09-09T18:38:27;2.20;;;0.60;;
32894;SDS011;19251;49.484;8.260;2022-09-09T18:43:30;1.33;;;0.40;;
32894;SDS011;19251;49.484;8.260;2022-09-09T18:48:33;3.40;;;0.47;;
32894;SDS011;19251;49.484;8.260;2022-09-09T18:53:36;2.95;;;0.50;;
32894;SDS011;19251;49.484;8.260;2022-09-09T18:58:38;1.40;;;0.40;;
32894;SDS011;19251;49.484;8.260;2022-09-09T19:03:41;0.82;;;0.32;;
32894;SDS011;19251;49.484;8.260;2022-09-09T19:08:44;2.20;;;0.30;;
32894;SDS011;19251;49.484;8.260;2022-09-09T19:13:54;1.70;;;0.65;;
32894;SDS011;19251;49.484;8.260;2022-09-09T19:18:59;7.85;;;0.70;;
32894;SDS011;19251;49.484;8.260;2022-09-09T19:24:21;3.83;;;0.52;;
32894;SDS011;19251;49.484;8.260;2022-09-09T19:29:25;1.13;;;0.57;;
32894;SDS011;19251;49.484;8.260;2022-09-09T19:34:29;1.27;;;0.57;;
32894;SDS011;19251;49.484;8.260;2022-09-09T19:39:31;1.15;;;0.62;;
32894;SDS011;19251;49.484;8.260;2022-09-09T19:44:35;1.75;;;0.47;;
32894;SDS011;19251;49.484;8.260;2022-09-09T19:49:37;2.65;;;0.60;;
32894;SDS011;19251;49.484;8.260;2022-09-09T19:54:39;1.23;;;0.35;;
32894;SDS011;19251;49.484;8.260;2022-09-09T19:59:42;2.80;;;0.47;;
32894;SDS011;19251;49.484;8.260;2022-09-09T20:04:47;4.47;;;1.23;;
32894;SDS011;19251;49.484;8.260;2022-09-09T20:09:49;3.65;;;0.75;;
32894;SDS011;19251;49.484;8.260;2022-09-09T20:14:55;1.58;;;0.60;;
32894;SDS011;19251;49.484;8.260;2022-09-09T20:19:57;2.85;;;0.65;;
32894;SDS011;19251;49.484;8.260;2022-09-09T20:25:00;1.10;;;0.30;;
32894;SDS011;19251;49.484;8.260;2022-09-09T20:30:03;4.62;;;0.77;;
32894;SDS011;19251;49.484;8.260;2022-09-09T20:40:09;1.87;;;0.30;;
32894;SDS011;19251;49.484;8.260;2022-09-09T20:45:11;2.50;;;0.82;;
32894;SDS011;19251;49.484;8.260;2022-09-09T20:50:16;1.92;;;0.50;;
32894;SDS011;19251;49.484;8.260;2022-09-09T20:55:18;2.55;;;0.60;;
32894;SDS011;19251;49.484;8.260;2022-09-09T21:00:21;1.45;;;0.35;;
32894;SDS011;19251;49.484;8.260;2022-09-09T21:05:23;4.22;;;0.85;;
32894;SDS011;19251;49.484;8.260;2022-09-09T21:10:26;3.62;;;0.65;;
32894;SDS011;19251;49.484;8.260;2022-09-09T21:15:28;1.00;;;0.50;;
32894;SDS011;19251;49.484;8.260;2022-09-09T21:20:30;0.62;;;0.25;;
32894;SDS011;19251;49.484;8.260;2022-09-09T21:25:33;5.60;;;0.60;;
32894;SDS011;19251;49.484;8.260;2022-09-09T21:30:35;1.75;;;0.60;;
32894;SDS011;19251;49.484;8.260;2022-09-09T21:35:44;2.60;;;0.60;;
32894;SDS011;19251;49.484;8.260;2022-09-09T21:40:47;1.20;;;0.30;;
32894;SDS011;19251;49.484;8.260;2022-09-09T21:45:50;3.00;;;0.50;;
32894;SDS011;19251;49.484;8.260;2022-09-09T21:50:53;1.45;;;0.40;;
32894;SDS011;19251;49.484;8.260;2022-09-09T21:55:59;1.02;;;0.65;;
32894;SDS011;19251;49.484;8.260;2022-09-09T22:01:08;2.40;;;0.50;;
32894;SDS011;19251;49.484;8.260;2022-09-09T22:06:14;1.98;;;1.05;;
32894;SDS011;19251;49.484;8.260;2022-09-09T22:11:19;1.48;;;0.50;;
32894;SDS011;19251;49.484;8.260;2022-09-09T22:16:23;2.30;;;0.50;;
32894;SDS011;19251;49.484;8.260;2022-09-09T22:26:29;1.75;;;0.60;;
32894;SDS011;19251;49.484;8.260;2022-09-09T22:31:34;1.77;;;0.57;;
32894;SDS011;19251;49.484;8.260;2022-09-09T22:36:36;1.60;;;0.60;;
32894;SDS011;19251;49.484;8.260;2022-09-09T22:41:39;2.65;;;0.60;;
32894;SDS011;19251;49.484;8.260;2022-09-09T22:46:41;3.23;;;0.97;;
32894;SDS011;19251;49.484;8.260;2022-09-09T22:51:43;4.57;;;1.10;;
32894;SDS011;19251;49.484;8.260;2022-09-09T22:56:46;1.15;;;0.50;;
32894;SDS011;19251;49.484;8.260;2022-09-09T23:01:49;2.95;;;0.43;;
32894;SDS011;19251;49.484;8.260;2022-09-09T23:06:53;0.95;;;0.50;;
32894;SDS011;19251;49.484;8.260;2022-09-09T23:11:58;1.65;;;0.60;;
32894;SDS011;19251;49.484;8.260;2022-09-09T23:22:03;1.50;;;0.62;;
32894;SDS011;19251;49.484;8.260;2022-09-09T23:27:05;1.87;;;0.50;;
32894;SDS011;19251;49.484;8.260;2022-09-09T23:32:08;7.45;;;1.02;;
32894;SDS011;19251;49.484;8.260;2022-09-09T23:37:10;1.70;;;0.50;;
32894;SDS011;19251;49.484;8.260;2022-09-09T23:42:13;3.62;;;1.08;;
32894;SDS011;19251;49.484;8.260;2022-09-09T23:47:15;1.10;;;0.45;;
32894;SDS011;19251;49.484;8.260;2022-09-09T23:52:18;4.75;;;1.08;;
32894;SDS011;19251;49.484;8.260;2022-09-09T23:57:20;5.93;;;0.95;;
